Time;durP1;ratioP1;P1;durP2;ratioP2;P2;SDS_P1;SDS_P2;PMS_P1;PMS_P2;Temp;Humidity;BMP_temperature;BMP_pressure;BME280_temperature;BME280_humidity;BME280_pressure;Samples;Min_cycle;Max_cycle;Signal;HPM_P1;HPM_P2
2021/04/27 00:02:18;;;;;;;8.75;4.20;;;;;;;7.79;44.67;95599.31;5072022;28;20049;-68
2021/04/27 00:04:45;;;;;;;7.28;4.20;;;;;;;7.76;44.91;95597.22;5073900;28;20114;-68
2021/04/27 00:07:12;;;;;;;7.18;4.05;;;;;;;7.68;44.88;95592.63;5072117;28;20681;-68
2021/04/27 00:09:38;;;;;;;12.85;4.43;;;;;;;7.63;45.10;95588.13;5073684;28;20105;-67
2021/04/27 00:12:06;;;;;;;8.45;4.22;;;;;;;7.55;45.20;95581.59;5072045;28;20041;-68
2021/04/27 00:14:32;;;;;;;8.10;4.60;;;;;;;7.51;45.53;95586.03;5073331;28;20048;-67
2021/04/27 00:16:58;;;;;;;6.47;4.60;;;;;;;7.47;45.93;95579.69;5072678;28;20056;-67
2021/04/27 00:19:24;;;;;;;7.15;4.28;;;;;;;7.40;46.14;95573.91;5072213;28;20074;-67
2021/04/27 00:21:51;;;;;;;7.60;4.88;;;;;;;7.36;46.39;95581.09;5085340;28;20044;-67
2021/04/27 00:24:17;;;;;;;7.93;4.10;;;;;;;7.31;46.54;95575.84;5092162;28;20040;-68
2021/04/27 00:26:43;;;;;;;7.43;4.63;;;;;;;7.28;46.51;95571.81;5092607;28;20040;-67
2021/04/27 00:29:09;;;;;;;6.75;4.13;;;;;;;7.24;46.40;95564.66;5071413;28;20052;-68
2021/04/27 00:31:35;;;;;;;11.60;5.60;;;;;;;7.21;46.82;95565.28;5073447;28;20053;-67
2021/04/27 00:34:01;;;;;;;8.65;4.63;;;;;;;7.22;46.98;95566.88;5071434;28;20048;-68
2021/04/27 00:36:28;;;;;;;12.30;4.80;;;;;;;7.15;47.20;95563.81;5073091;28;20408;-67
2021/04/27 00:38:55;;;;;;;10.07;4.80;;;;;;;7.12;47.27;95561.75;5072176;28;20045;-67
2021/04/27 00:41:22;;;;;;;8.10;5.38;;;;;;;7.10;47.36;95555.84;5072246;28;20048;-67
2021/04/27 00:43:48;;;;;;;10.00;5.10;;;;;;;7.05;47.47;95554.09;5072444;28;20661;-67
2021/04/27 00:46:14;;;;;;;8.98;4.97;;;;;;;6.97;47.80;95552.97;5071564;28;20048;-67
2021/04/27 00:48:40;;;;;;;10.98;5.40;;;;;;;6.98;47.82;95557.25;5072693;28;20510;-68
2021/04/27 00:51:06;;;;;;;10.25;5.20;;;;;;;6.97;47.82;95544.03;5077296;28;20044;-67
2021/04/27 00:53:32;;;;;;;11.30;5.07;;;;;;;6.96;48.21;95548.66;5092998;28;20099;-68
2021/04/27 00:55:59;;;;;;;10.10;5.10;;;;;;;6.97;48.27;95552.16;5091655;28;20056;-67
2021/04/27 00:58:26;;;;;;;9.05;5.40;;;;;;;6.93;48.10;95549.28;5077656;28;20665;-68
2021/04/27 01:00:53;;;;;;;9.57;5.05;;;;;;;6.92;48.58;95546.91;5071436;28;20085;-67
2021/04/27 01:03:19;;;;;;;13.13;5.25;;;;;;;6.90;48.54;95546.44;5071796;28;20075;-67
2021/04/27 01:05:45;;;;;;;10.25;5.43;;;;;;;6.87;48.47;95539.72;5071918;28;20052;-67
2021/04/27 01:08:17;;;;;;;9.32;5.50;;;;;;;6.85;48.78;95550.06;5070531;28;20048;-67
2021/04/27 01:10:51;;;;;;;8.70;5.13;;;;;;;6.85;48.86;95550.06;5072054;28;20053;-67
2021/04/27 01:13:25;;;;;;;7.28;4.95;;;;;;;6.84;48.60;95548.47;5070920;28;20044;-67
2021/04/27 01:15:52;;;;;;;8.50;5.35;;;;;;;6.89;49.31;95548.34;5072612;28;20056;-67
2021/04/27 01:18:20;;;;;;;9.48;5.35;;;;;;;6.93;49.43;95548.47;5070677;28;20052;-68
2021/04/27 01:20:49;;;;;;;9.50;5.70;;;;;;;6.93;48.95;95557.41;5075441;28;20082;-68
2021/04/27 01:23:32;;;;;;;9.98;5.22;;;;;;;6.94;48.84;95542.78;5090964;28;20046;-68
2021/04/27 01:26:03;;;;;;;14.93;5.55;;;;;;;6.93;48.90;95546.56;5087461;28;20052;-68
2021/04/27 01:28:31;;;;;;;9.85;5.80;;;;;;;6.93;49.12;95551.97;5091886;28;20036;-68
2021/04/27 01:30:58;;;;;;;7.78;5.00;;;;;;;6.94;49.16;95550.91;5091539;28;20477;-67
2021/04/27 01:33:27;;;;;;;10.35;5.15;;;;;;;6.92;49.04;95542.28;5091554;28;20044;-67
2021/04/27 01:35:55;;;;;;;8.18;5.20;;;;;;;6.84;48.91;95543.06;5090973;28;20044;-67
2021/04/27 01:38:21;;;;;;;11.07;5.38;;;;;;;6.84;49.58;95548.47;5091511;28;20052;-67
2021/04/27 01:40:48;;;;;;;8.85;5.25;;;;;;;6.82;49.37;95547.97;5090858;28;20426;-67
2021/04/27 01:43:14;;;;;;;11.43;4.72;;;;;;;6.82;49.24;95550.69;5091417;28;20048;-67
2021/04/27 01:45:41;;;;;;;6.75;4.53;;;;;;;6.79;48.97;95548.63;5091451;28;20445;-67
2021/04/27 01:48:08;;;;;;;9.07;4.53;;;;;;;6.74;49.01;95546.06;5090762;28;20039;-68
2021/04/27 01:50:35;;;;;;;11.73;5.28;;;;;;;6.73;48.94;95547.13;5091504;28;20044;-67
2021/04/27 01:53:01;;;;;;;6.53;4.43;;;;;;;6.67;49.17;95545.69;5090841;28;20048;-67
2021/04/27 01:55:28;;;;;;;7.85;4.75;;;;;;;6.61;50.07;95542.31;5091414;28;20498;-67
2021/04/27 01:57:54;;;;;;;11.18;5.28;;;;;;;6.53;50.47;95546.59;5072918;28;20040;-67
2021/04/27 02:00:24;;;;;;;7.40;4.78;;;;;;;6.51;50.80;95543.41;5071090;28;20036;-67
2021/04/27 02:02:51;;;;;;;7.30;4.85;;;;;;;6.48;50.13;95530.50;5070082;28;20051;-68
2021/04/27 02:05:18;;;;;;;10.73;4.88;;;;;;;6.45;51.14;95539.25;5070785;28;20044;-67
2021/04/27 02:07:44;;;;;;;10.63;4.50;;;;;;;6.37;51.25;95534.59;5070467;28;20045;-67
2021/04/27 02:10:12;;;;;;;6.72;4.47;;;;;;;6.26;50.98;95536.78;5070377;28;20052;-67
2021/04/27 02:12:42;;;;;;;8.73;5.15;;;;;;;6.18;51.71;95540.22;5070635;28;20075;-67
2021/04/27 02:15:10;;;;;;;8.23;4.97;;;;;;;6.15;51.57;95531.91;5069798;28;20071;-67
2021/04/27 02:17:40;;;;;;;5.78;4.03;;;;;;;6.14;51.45;95531.13;5070812;28;20051;-67
2021/04/27 02:20:09;;;;;;;7.03;4.20;;;;;;;6.07;50.77;95533.47;5069505;28;20043;-67
2021/04/27 02:22:35;;;;;;;9.25;4.68;;;;;;;6.03;51.42;95529.00;5089615;28;20162;-67
2021/04/27 02:25:03;;;;;;;11.00;4.70;;;;;;;6.01;51.49;95529.31;5090075;28;20044;-67
2021/04/27 02:27:30;;;;;;;7.10;4.15;;;;;;;5.98;50.99;95530.72;5089877;28;20044;-67
2021/04/27 02:29:58;;;;;;;7.60;4.63;;;;;;;5.95;51.40;95533.22;5089043;28;20071;-67
2021/04/27 02:32:24;;;;;;;9.07;4.30;;;;;;;5.93;51.24;95533.53;5090163;28;20039;-67
2021/04/27 02:34:50;;;;;;;10.43;4.43;;;;;;;5.89;50.66;95521.72;5088859;28;20132;-67
2021/04/27 02:37:18;;;;;;;9.82;4.32;;;;;;;5.89;51.13;95526.31;5089105;28;20051;-67
2021/04/27 02:39:45;;;;;;;7.80;4.00;;;;;;;5.87;50.90;95529.34;5090780;28;20044;-67
2021/04/27 02:42:11;;;;;;;7.25;4.47;;;;;;;5.89;50.86;95521.72;5089495;28;20052;-67
2021/04/27 02:44:37;;;;;;;9.25;4.50;;;;;;;5.90;50.31;95520.63;5091232;28;20044;-67
2021/04/27 02:47:03;;;;;;;9.60;4.78;;;;;;;5.89;50.99;95510.91;5089465;28;20048;-68
2021/04/27 02:49:29;;;;;;;9.32;3.90;;;;;;;5.80;50.10;95506.56;5091081;28;20044;-67
2021/04/27 02:51:55;;;;;;;8.00;4.32;;;;;;;5.77;50.84;95513.38;5089854;28;20043;-67
2021/04/27 02:54:22;;;;;;;6.70;4.32;;;;;;;5.79;50.18;95511.16;5090340;28;20108;-67
2021/04/27 02:56:48;;;;;;;6.13;3.90;;;;;;;5.75;50.44;95504.78;5081580;28;20056;-67
2021/04/27 02:59:15;;;;;;;6.75;4.28;;;;;;;5.73;51.27;95498.88;5069481;28;20049;-67
2021/04/27 03:01:41;;;;;;;8.63;4.95;;;;;;;5.71;51.23;95498.41;5070293;28;20051;-67
2021/04/27 03:04:07;;;;;;;7.57;4.10;;;;;;;5.71;50.59;95495.69;5069167;28;20067;-67
2021/04/27 03:06:33;;;;;;;9.02;4.50;;;;;;;5.75;51.06;95496.69;5070600;28;20092;-68
2021/04/27 03:08:59;;;;;;;8.05;4.55;;;;;;;5.73;50.96;95491.56;5070379;28;20078;-67
2021/04/27 03:11:27;;;;;;;7.63;4.35;;;;;;;5.75;49.91;95494.78;5070255;28;20045;-67
2021/04/27 03:13:53;;;;;;;9.90;4.53;;;;;;;5.72;50.62;95494.59;5069416;28;20415;-67
2021/04/27 03:16:19;;;;;;;7.95;4.68;;;;;;;5.65;50.01;95500.44;5069615;28;20045;-67
2021/04/27 03:18:45;;;;;;;7.35;4.43;;;;;;;5.67;50.66;95492.00;5069487;28;20052;-67
2021/04/27 03:21:11;;;;;;;9.93;4.80;;;;;;;5.66;51.06;95495.81;5076427;28;20135;-67
2021/04/27 03:23:37;;;;;;;6.80;4.20;;;;;;;5.69;50.59;95495.19;5089816;28;20047;-67
2021/04/27 03:26:03;;;;;;;10.55;4.97;;;;;;;5.67;50.47;95502.81;5087183;28;20051;-67
2021/04/27 03:28:30;;;;;;;8.70;4.43;;;;;;;5.66;50.61;95496.63;5069602;28;20441;-67
2021/04/27 03:30:56;;;;;;;6.03;4.28;;;;;;;5.64;50.86;95501.53;5071766;28;20045;-67
2021/04/27 03:33:23;;;;;;;9.85;4.97;;;;;;;5.64;51.34;95492.66;5073946;28;20044;-67
2021/04/27 03:35:49;;;;;;;7.38;4.60;;;;;;;5.63;50.93;95493.72;5073056;28;20052;-68
2021/04/27 03:38:15;;;;;;;9.75;4.70;;;;;;;5.64;50.90;95498.06;5073921;28;20439;-67
2021/04/27 03:40:41;;;;;;;8.45;4.63;;;;;;;5.64;50.57;95496.13;5073056;28;20056;-67
2021/04/27 03:43:08;;;;;;;8.35;4.70;;;;;;;5.66;49.71;95490.44;5073554;28;20603;-68
2021/04/27 03:45:35;;;;;;;8.05;4.07;;;;;;;5.67;49.64;95498.22;5073195;28;20051;-67
2021/04/27 03:48:04;;;;;;;16.92;5.60;;;;;;;5.62;49.97;95489.44;5073166;28;20439;-68
2021/04/27 03:50:30;;;;;;;8.98;4.60;;;;;;;5.61;50.31;95490.56;5074342;28;20052;-67
2021/04/27 03:52:56;;;;;;;8.95;4.20;;;;;;;5.58;49.96;95488.44;5093489;28;20067;-67
2021/04/27 03:55:22;;;;;;;8.23;5.00;;;;;;;5.55;51.17;95491.78;5093524;28;20513;-67
2021/04/27 03:57:48;;;;;;;8.20;4.60;;;;;;;5.55;50.32;95486.38;5075834;28;20045;-67
2021/04/27 04:00:15;;;;;;;8.90;4.60;;;;;;;5.53;50.89;95480.47;5073483;28;20055;-67
2021/04/27 04:02:42;;;;;;;10.27;4.95;;;;;;;5.52;50.06;95489.69;5072428;28;20411;-67
2021/04/27 04:05:09;;;;;;;10.00;4.75;;;;;;;5.47;50.09;95485.19;5073239;28;20060;-67
2021/04/27 04:07:35;;;;;;;7.55;4.45;;;;;;;5.45;50.37;95480.09;5072618;28;20040;-67
2021/04/27 04:10:01;;;;;;;9.10;4.75;;;;;;;5.46;50.08;95476.28;5072954;28;20549;-67
2021/04/27 04:12:27;;;;;;;7.00;4.30;;;;;;;5.46;49.97;95487.09;5072993;28;20094;-68
2021/04/27 04:14:53;;;;;;;8.85;4.35;;;;;;;5.44;50.49;95483.91;5072859;28;20514;-67
2021/04/27 04:17:19;;;;;;;7.93;4.90;;;;;;;5.47;50.35;95477.88;5072478;28;20045;-67
2021/04/27 04:19:47;;;;;;;11.77;4.60;;;;;;;5.48;50.92;95479.50;5072545;28;20045;-67
2021/04/27 04:22:14;;;;;;;8.00;4.80;;;;;;;5.49;51.13;95481.09;5088152;28;20086;-68
2021/04/27 04:24:41;;;;;;;9.27;4.57;;;;;;;5.50;51.07;95487.28;5092325;28;20123;-67
2021/04/27 04:27:07;;;;;;;7.20;4.75;;;;;;;5.54;50.65;95487.50;5082132;28;20063;-67
2021/04/27 04:29:33;;;;;;;11.50;4.88;;;;;;;5.57;50.04;95489.56;5071927;28;20048;-67
2021/04/27 04:31:59;;;;;;;9.45;4.65;;;;;;;5.56;50.85;95486.06;5072948;28;20052;-67
2021/04/27 04:34:25;;;;;;;7.43;4.95;;;;;;;5.57;51.38;95484.16;5071872;28;20494;-67
2021/04/27 04:36:52;;;;;;;8.60;4.78;;;;;;;5.58;51.92;95483.03;5072522;28;20044;-67
2021/04/27 04:39:18;;;;;;;9.25;4.80;;;;;;;5.57;51.28;95484.94;5071980;28;20048;-68
2021/04/27 04:41:44;;;;;;;11.27;4.57;;;;;;;5.55;51.48;95484.47;5071577;28;20495;-67
2021/04/27 04:44:10;;;;;;;10.23;5.18;;;;;;;5.52;52.11;95484.28;5071605;28;20504;-67
2021/04/27 04:46:36;;;;;;;7.93;5.00;;;;;;;5.52;50.25;95479.66;5071878;28;20040;-67
2021/04/27 04:49:04;;;;;;;8.27;4.90;;;;;;;5.45;51.44;95477.41;5072204;28;20059;-67
2021/04/27 04:51:30;;;;;;;7.80;4.60;;;;;;;5.44;51.41;95478.53;5080774;28;20044;-67
2021/04/27 04:53:57;;;;;;;7.75;4.60;;;;;;;5.46;51.29;95476.28;5093135;28;20048;-67
2021/04/27 04:56:23;;;;;;;8.45;4.68;;;;;;;5.42;51.94;95480.72;5085979;28;20525;-67
2021/04/27 04:58:49;;;;;;;7.78;4.57;;;;;;;5.36;51.24;95481.94;5073005;28;20052;-67
2021/04/27 05:01:16;;;;;;;11.25;4.93;;;;;;;5.40;51.42;95484.84;5072513;28;20575;-67
2021/04/27 05:03:42;;;;;;;8.98;5.47;;;;;;;5.41;52.02;95483.72;5071901;28;20075;-67
2021/04/27 05:06:14;;;;;;;10.98;4.90;;;;;;;5.43;51.40;95485.03;5071336;28;20518;-67
2021/04/27 05:08:43;;;;;;;9.35;4.80;;;;;;;5.44;51.22;95489.31;5071739;28;20052;-67
2021/04/27 05:11:10;;;;;;;9.25;5.13;;;;;;;5.45;50.75;95474.72;5071868;28;20075;-67
2021/04/27 05:13:36;;;;;;;7.72;4.90;;;;;;;5.46;51.84;95481.69;5071229;28;20052;-67
2021/04/27 05:16:03;;;;;;;8.30;5.55;;;;;;;5.53;51.83;95485.88;5072015;28;20109;-67
2021/04/27 05:18:29;;;;;;;9.13;4.93;;;;;;;5.50;50.88;95488.09;5071196;28;20048;-67
2021/04/27 05:20:55;;;;;;;10.32;4.72;;;;;;;5.56;50.90;95485.28;5076765;28;20104;-67
2021/04/27 05:23:22;;;;;;;8.70;4.68;;;;;;;5.64;51.48;95487.25;5091131;28;20079;-67
2021/04/27 05:25:48;;;;;;;9.60;5.13;;;;;;;5.68;51.96;95486.28;5091995;28;20164;-67
2021/04/27 05:28:15;;;;;;;8.95;5.10;;;;;;;5.78;51.60;95484.47;5070561;28;20070;-67
2021/04/27 05:30:41;;;;;;;10.88;5.15;;;;;;;5.83;50.65;95485.13;5087501;28;20059;-67
2021/04/27 05:33:07;;;;;;;9.25;5.22;;;;;;;5.88;49.93;95487.69;5091409;28;20724;-67
2021/04/27 05:35:34;;;;;;;9.52;4.63;;;;;;;5.98;50.76;95486.69;5091280;28;20579;-67
2021/04/27 05:38:00;;;;;;;10.13;5.20;;;;;;;6.00;50.05;95487.97;5092138;28;20499;-67
2021/04/27 05:40:26;;;;;;;10.43;5.18;;;;;;;6.09;49.83;95487.22;5090464;28;20044;-67
2021/04/27 05:42:52;;;;;;;9.65;5.45;;;;;;;6.16;49.82;95487.56;5092265;28;20052;-67
2021/04/27 05:45:19;;;;;;;18.35;5.70;;;;;;;6.25;49.22;95485.69;5090523;28;20097;-67
2021/04/27 05:47:45;;;;;;;8.70;4.90;;;;;;;6.35;49.50;95490.03;5091848;28;20114;-67
2021/04/27 05:50:12;;;;;;;12.20;4.70;;;;;;;6.39;48.52;95485.59;5090587;28;20459;-68
2021/04/27 05:52:38;;;;;;;15.93;5.15;;;;;;;6.48;48.61;95489.94;5091441;28;20066;-67
2021/04/27 05:55:05;;;;;;;9.80;5.38;;;;;;;6.52;48.00;95493.63;5090434;28;20048;-67
2021/04/27 05:57:31;;;;;;;11.00;5.75;;;;;;;6.58;48.13;95488.03;5076462;28;20447;-67
2021/04/27 05:59:57;;;;;;;10.90;5.47;;;;;;;6.63;48.35;95490.59;5071460;28;20522;-67
2021/04/27 06:02:24;;;;;;;12.18;5.25;;;;;;;6.71;47.41;95481.72;5069497;28;20052;-67
2021/04/27 06:04:49;;;;;;;10.15;5.43;;;;;;;6.76;47.66;95478.88;5071700;28;20056;-67
2021/04/27 06:07:16;;;;;;;14.15;5.45;;;;;;;6.83;48.37;95473.78;5069569;28;20109;-75
2021/04/27 06:09:41;;;;;;;9.77;5.10;;;;;;;6.90;47.73;95474.16;5071494;28;20057;-75
2021/04/27 06:12:08;;;;;;;11.18;4.93;;;;;;;6.90;47.96;95474.16;5086683;28;20043;-75
2021/04/27 06:14:34;;;;;;;7.82;4.82;;;;;;;6.88;47.41;95470.94;5090806;28;20052;-75
2021/04/27 06:17:00;;;;;;;8.15;5.53;;;;;;;6.90;47.86;95471.44;5090482;28;20047;-75
2021/04/27 06:19:27;;;;;;;11.60;5.32;;;;;;;6.98;48.54;95478.75;5089714;28;20136;-68
2021/04/27 06:21:53;;;;;;;9.95;4.95;;;;;;;6.99;47.21;95471.44;5090511;28;20568;-68
2021/04/27 06:24:19;;;;;;;12.13;5.75;;;;;;;7.03;48.42;95473.19;5089356;28;20135;-69
2021/04/27 06:26:45;;;;;;;11.60;5.18;;;;;;;7.14;48.58;95476.38;5087369;28;20048;-69
2021/04/27 06:29:11;;;;;;;13.70;7.43;;;;;;;7.25;47.07;95485.00;5086380;28;20117;-69
2021/04/27 06:31:37;;;;;;;9.27;5.15;;;;;;;7.30;47.11;95482.94;5087905;28;20040;-69
2021/04/27 06:34:04;;;;;;;9.85;4.72;;;;;;;7.36;47.04;95475.47;5086585;28;20050;-70
2021/04/27 06:36:31;;;;;;;10.30;5.32;;;;;;;7.43;47.49;95470.38;5088201;28;20036;-70
2021/04/27 06:38:58;;;;;;;12.85;5.60;;;;;;;7.51;46.98;95466.03;5087000;28;20052;-69
2021/04/27 06:41:23;;;;;;;11.15;5.40;;;;;;;7.56;46.60;95472.09;5087316;28;20059;-69
2021/04/27 06:43:50;;;;;;;12.98;5.20;;;;;;;7.65;47.40;95471.31;5087284;28;20063;-69
2021/04/27 06:46:17;;;;;;;11.52;6.03;;;;;;;7.69;46.82;95466.84;5086819;28;20056;-70
2021/04/27 06:48:43;;;;;;;14.02;5.90;;;;;;;7.77;47.20;95463.31;5087596;28;20052;-69
2021/04/27 06:51:09;;;;;;;11.70;5.75;;;;;;;7.86;47.21;95466.81;5086634;28;20052;-69
2021/04/27 06:53:36;;;;;;;11.38;5.50;;;;;;;7.95;46.93;95461.38;5087598;28;20391;-70
2021/04/27 06:56:04;;;;;;;11.13;5.50;;;;;;;8.11;46.74;95457.81;5084399;28;20047;-70
2021/04/27 06:58:30;;;;;;;8.48;5.30;;;;;;;8.16;46.34;95458.75;5068805;28;20071;-68
2021/04/27 07:00:56;;;;;;;10.27;5.40;;;;;;;8.23;46.26;95453.63;5069236;28;20048;-68
2021/04/27 07:03:29;;;;;;;11.63;5.68;;;;;;;8.27;46.61;95463.50;5069624;28;20049;-68
2021/04/27 07:05:55;;;;;;;15.50;5.50;;;;;;;8.36;46.41;95469.72;5068984;28;20399;-68
2021/04/27 07:08:21;;;;;;;12.40;5.90;;;;;;;8.45;46.50;95461.53;5069479;28;20049;-67
2021/04/27 07:10:48;;;;;;;9.50;5.88;;;;;;;8.54;45.87;95458.78;5069916;28;20053;-67
2021/04/27 07:13:14;;;;;;;9.30;5.53;;;;;;;8.61;45.82;95459.91;5068855;28;20698;-67
2021/04/27 07:15:40;;;;;;;10.25;5.50;;;;;;;8.78;48.19;95447.34;5070238;28;20049;-67
2021/04/27 07:18:06;;;;;;;8.93;5.70;;;;;;;8.94;47.70;95447.56;5068790;28;20583;-68
2021/04/27 07:20:32;;;;;;;10.73;5.30;;;;;;;9.12;45.86;95452.53;5071715;28;20052;-68
2021/04/27 07:22:59;;;;;;;11.10;5.80;;;;;;;9.29;44.87;95450.81;5089417;28;20090;-68
2021/04/27 07:25:25;;;;;;;13.98;7.15;;;;;;;9.48;46.15;95447.66;5089681;28;20044;-68
2021/04/27 07:27:52;;;;;;;8.48;5.57;;;;;;;9.64;45.96;95446.69;5088744;28;20078;-68
2021/04/27 07:30:20;;;;;;;11.90;6.10;;;;;;;9.79;45.34;95450.72;5089510;28;20063;-68
2021/04/27 07:32:47;;;;;;;10.38;6.55;;;;;;;9.97;44.25;95443.19;5089704;28;20036;-68
2021/04/27 07:35:13;;;;;;;9.95;5.82;;;;;;;10.12;43.28;95444.47;5089030;28;20106;-68
2021/04/27 07:37:39;;;;;;;11.40;5.70;;;;;;;10.25;43.83;95443.38;5090241;28;20052;-68
2021/04/27 07:40:07;;;;;;;7.68;5.53;;;;;;;10.42;43.30;95439.66;5088676;28;20051;-68
2021/04/27 07:42:33;;;;;;;11.15;5.97;;;;;;;10.77;43.76;95436.50;5090534;28;20051;-67
2021/04/27 07:45:00;;;;;;;9.88;5.45;;;;;;;11.61;40.89;95442.13;5088489;28;20063;-68
2021/04/27 07:47:27;;;;;;;9.43;5.25;;;;;;;12.69;38.94;95436.41;5090228;28;20101;-69
2021/04/27 07:49:53;;;;;;;9.98;5.63;;;;;;;13.70;36.16;95429.28;5089243;28;20044;-69
2021/04/27 07:52:19;;;;;;;9.55;5.60;;;;;;;14.35;35.41;95442.22;5089455;28;20059;-67
2021/04/27 07:54:45;;;;;;;11.02;5.32;;;;;;;15.06;33.27;95431.69;5089262;28;20494;-68
2021/04/27 07:57:12;;;;;;;11.65;5.75;;;;;;;15.95;31.32;95434.84;5088354;28;20049;-68
2021/04/27 07:59:38;;;;;;;12.80;5.70;;;;;;;16.54;31.18;95431.13;5089638;28;20072;-65
2021/04/27 08:02:05;;;;;;;7.60;4.93;;;;;;;17.39;29.48;95424.75;5088834;28;20448;-68
2021/04/27 08:04:31;;;;;;;8.02;5.80;;;;;;;17.42;29.20;95423.97;5089641;28;20055;-69
2021/04/27 08:06:57;;;;;;;10.40;5.53;;;;;;;17.99;28.73;95427.81;5088916;28;20044;-68
2021/04/27 08:09:23;;;;;;;7.95;5.22;;;;;;;18.65;27.47;95421.25;5089630;28;20062;-66
2021/04/27 08:11:49;;;;;;;11.00;5.65;;;;;;;19.24;27.27;95416.13;5088484;28;20055;-68
2021/04/27 08:14:15;;;;;;;8.73;4.75;;;;;;;19.70;28.11;95413.31;5089433;28;20067;-69
2021/04/27 08:16:41;;;;;;;7.88;5.30;;;;;;;20.15;25.43;95421.00;5089714;28;20060;-69
2021/04/27 08:19:09;;;;;;;11.40;5.10;;;;;;;20.46;25.65;95424.78;5092580;28;20063;-69
2021/04/27 08:21:35;;;;;;;7.78;5.05;;;;;;;20.65;25.77;95423.50;5092735;28;20055;-68
2021/04/27 08:24:02;;;;;;;10.07;5.30;;;;;;;20.92;26.16;95423.69;5092627;28;20517;-68
2021/04/27 08:26:28;;;;;;;25.92;6.38;;;;;;;21.00;24.01;95423.25;5091879;28;20048;-67
2021/04/27 08:28:54;;;;;;;7.90;4.85;;;;;;;21.22;23.45;95415.53;5091951;28;20075;-66
2021/04/27 08:31:20;;;;;;;7.75;5.50;;;;;;;21.41;23.52;95416.97;5093050;28;20051;-67
2021/04/27 08:33:46;;;;;;;8.27;5.47;;;;;;;21.72;24.01;95414.28;5092029;28;20111;-67
2021/04/27 08:36:13;;;;;;;7.97;4.82;;;;;;;22.09;23.69;95417.00;5093004;28;20048;-67
2021/04/27 08:38:39;;;;;;;11.32;5.43;;;;;;;22.24;23.67;95420.41;5091812;28;20615;-68
2021/04/27 08:41:05;;;;;;;11.90;5.70;;;;;;;22.48;22.40;95421.25;5092322;28;20055;-69
2021/04/27 08:43:31;;;;;;;10.98;5.80;;;;;;;22.52;22.95;95416.44;5092089;28;20048;-68
2021/04/27 08:45:57;;;;;;;11.23;5.47;;;;;;;22.44;22.40;95420.50;5092899;28;20055;-67
2021/04/27 08:48:24;;;;;;;10.23;5.20;;;;;;;22.35;21.93;95417.47;5091301;28;20063;-66
2021/04/27 08:50:50;;;;;;;12.05;5.25;;;;;;;22.34;22.52;95416.69;5092378;28;20056;-68
2021/04/27 08:53:17;;;;;;;8.85;5.45;;;;;;;22.42;22.35;95420.16;5091984;28;20495;-67
2021/04/27 08:55:44;;;;;;;7.82;5.00;;;;;;;22.37;23.30;95415.84;5091926;28;20044;-67
2021/04/27 08:58:12;;;;;;;9.35;5.60;;;;;;;22.70;23.07;95413.38;5072278;28;20052;-68
2021/04/27 09:00:39;;;;;;;7.80;5.07;;;;;;;22.55;22.73;95404.50;5071016;28;20068;-69
2021/04/27 09:03:07;;;;;;;10.30;5.70;;;;;;;22.92;21.87;95405.56;5071829;28;20036;-68
2021/04/27 09:05:36;;;;;;;7.47;5.53;;;;;;;23.05;22.25;95403.75;5069873;28;20056;-69
2021/04/27 09:08:03;;;;;;;10.90;5.60;;;;;;;22.90;21.45;95400.41;5069763;28;20047;-69
2021/04/27 09:10:32;;;;;;;15.75;6.10;;;;;;;22.92;22.27;95391.69;5071470;28;20048;-68
2021/04/27 09:13:02;;;;;;;11.10;6.10;;;;;;;23.18;22.04;95395.59;5071851;28;20052;-69
2021/04/27 09:15:34;;;;;;;10.43;6.25;;;;;;;23.32;22.08;95400.09;5071538;28;20523;-69
2021/04/27 09:18:27;;;;;;;9.90;5.55;;;;;;;23.38;22.50;95382.53;5071242;28;20048;-69
2021/04/27 09:20:56;;;;;;;9.65;5.40;;;;;;;23.85;21.70;95390.78;5075353;28;20048;-69
2021/04/27 09:23:22;;;;;;;10.73;5.70;;;;;;;23.80;22.07;95384.94;5090748;28;20044;-69
2021/04/27 09:26:11;;;;;;;11.10;5.95;;;;;;;23.61;22.01;95387.28;5091740;28;20509;-69
2021/04/27 09:28:39;;;;;;;9.82;5.63;;;;;;;23.29;21.07;95381.53;5063512;28;20045;-69
2021/04/27 09:31:23;;;;;;;10.88;5.88;;;;;;;23.34;21.38;95376.28;5070520;28;20049;-69
2021/04/27 09:33:49;;;;;;;12.70;5.68;;;;;;;23.14;22.49;95376.22;5072224;28;20059;-69
2021/04/27 09:36:20;;;;;;;10.25;5.95;;;;;;;22.89;24.56;95373.09;5070108;28;20056;-70
2021/04/27 09:38:46;;;;;;;9.48;5.97;;;;;;;22.52;22.60;95372.03;5071864;28;20488;-69
2021/04/27 09:41:14;;;;;;;11.77;6.15;;;;;;;22.36;24.23;95369.91;5070149;28;20045;-71
2021/04/27 09:43:42;;;;;;;10.38;6.70;;;;;;;22.25;22.83;95363.72;5071446;28;20052;-69
2021/04/27 09:46:11;;;;;;;11.55;6.30;;;;;;;21.82;24.19;95357.91;5070557;28;20081;-69
2021/04/27 09:48:39;;;;;;;12.80;8.93;;;;;;;21.27;24.47;95370.00;5071199;28;20048;-69
2021/04/27 09:51:19;;;;;;;8.75;6.20;;;;;;;20.96;27.20;95358.81;5076690;28;20632;-69
2021/04/27 09:53:49;;;;;;;9.90;6.13;;;;;;;20.77;26.26;95357.41;5090959;28;20089;-69
2021/04/27 09:56:39;;;;;;;11.55;6.30;;;;;;;20.53;25.65;95367.47;5087007;28;20044;-69
2021/04/27 09:59:08;;;;;;;15.85;6.57;;;;;;;20.48;25.84;95353.31;5069802;28;20074;-69
2021/04/27 10:01:35;;;;;;;11.45;6.13;;;;;;;20.51;24.71;95366.31;5070974;28;20045;-69
2021/04/27 10:04:01;;;;;;;9.98;6.38;;;;;;;20.42;27.35;95352.94;5070579;28;20044;-69
2021/04/27 10:06:28;;;;;;;10.80;7.20;;;;;;;20.41;27.24;95361.59;5070684;28;20040;-69
2021/04/27 10:08:55;;;;;;;11.90;7.22;;;;;;;20.17;27.93;95363.34;5070980;28;20052;-69
2021/04/27 10:11:22;;;;;;;9.30;6.32;;;;;;;20.12;25.81;95359.03;5069624;28;20044;-69
2021/04/27 10:13:49;;;;;;;9.88;6.32;;;;;;;20.17;26.41;95358.59;5071124;28;20041;-69
2021/04/27 10:16:15;;;;;;;20.52;7.72;;;;;;;20.08;25.62;95361.81;5069437;28;20469;-69
2021/04/27 10:18:42;;;;;;;10.82;6.97;;;;;;;20.06;26.13;95353.16;5070894;28;20380;-69
2021/04/27 10:21:10;;;;;;;16.88;7.03;;;;;;;20.01;25.97;95347.25;5075899;28;20046;-69
2021/04/27 10:23:38;;;;;;;12.68;7.20;;;;;;;19.79;27.41;95339.09;5072970;28;20051;-69
2021/04/27 10:26:04;;;;;;;10.88;7.35;;;;;;;19.67;25.76;95334.00;5087409;28;20442;-72
2021/04/27 10:29:02;;;;;;;14.88;8.18;;;;;;;19.70;29.52;95324.13;5070113;28;20045;-70
2021/04/27 10:31:31;;;;;;;9.88;6.47;;;;;;;19.90;28.75;95333.50;5070792;28;20041;-69
2021/04/27 10:33:58;;;;;;;11.00;7.05;;;;;;;20.05;26.75;95335.00;5069395;28;20049;-69
2021/04/27 10:36:26;;;;;;;11.07;6.60;;;;;;;20.02;27.00;95330.28;5070417;28;20052;-69
2021/04/27 10:38:56;;;;;;;11.95;7.13;;;;;;;19.97;27.59;95327.94;5069585;28;20045;-68
2021/04/27 10:41:25;;;;;;;10.10;7.22;;;;;;;19.93;26.27;95323.59;5070385;28;20040;-69
2021/04/27 10:43:59;;;;;;;10.55;7.07;;;;;;;19.77;27.06;95315.81;5070636;28;20495;-68
2021/04/27 10:47:04;;;;;;;12.60;7.78;;;;;;;19.52;28.91;95319.47;5069515;28;20135;-68
2021/04/27 10:49:42;;;;;;;10.18;6.80;;;;;;;19.66;30.51;95312.31;5067023;28;20040;-69
2021/04/27 10:52:30;;;;;;;12.55;7.35;;;;;;;19.82;27.35;95318.16;5083488;28;20101;-69
2021/04/27 10:55:25;;;;;;;11.35;7.72;;;;;;;20.08;27.43;95314.81;5090842;28;20107;-69
2021/04/27 10:57:51;;;;;;;11.27;7.47;;;;;;;20.34;29.23;95307.16;5072899;28;20036;-69
2021/04/27 11:00:36;;;;;;;10.63;6.85;;;;;;;20.28;28.31;95298.50;5069125;28;20407;-69
2021/04/27 11:03:12;;;;;;;11.68;7.40;;;;;;;20.30;27.53;95300.84;5069750;28;20044;-69
2021/04/27 11:05:51;;;;;;;11.25;6.55;;;;;;;20.27;27.28;95296.16;5069578;28;20051;-68
2021/04/27 11:08:17;;;;;;;11.80;7.45;;;;;;;20.25;26.94;95304.06;5069447;28;20048;-68
2021/04/27 11:10:44;;;;;;;10.80;7.85;;;;;;;20.34;27.73;95301.63;5069615;28;20476;-69
2021/04/27 11:13:12;;;;;;;11.23;7.28;;;;;;;20.48;28.28;95295.22;5069055;28;20057;-69
2021/04/27 11:15:41;;;;;;;13.65;7.10;;;;;;;20.47;27.94;95299.97;5070116;28;20136;-69
2021/04/27 11:18:09;;;;;;;11.60;7.40;;;;;;;20.46;27.29;95290.09;5068819;28;20430;-70
2021/04/27 11:20:56;;;;;;;11.70;7.47;;;;;;;20.61;28.04;95287.22;5072084;28;20049;-68
2021/04/27 11:23:52;;;;;;;12.38;7.38;;;;;;;20.69;27.55;95288.72;5070871;28;20052;-68
2021/04/27 11:26:52;;;;;;;10.32;7.10;;;;;;;20.67;26.99;95282.81;5088309;28;20384;-68
2021/04/27 11:29:23;;;;;;;12.23;7.25;;;;;;;20.60;26.28;95275.38;5089946;28;20052;-68
2021/04/27 11:32:07;;;;;;;9.50;6.97;;;;;;;20.58;26.59;95289.59;5089053;28;20052;-68
2021/04/27 11:34:57;;;;;;;13.43;7.93;;;;;;;20.59;28.15;95285.66;5090324;28;20039;-69
2021/04/27 11:37:26;;;;;;;12.75;7.55;;;;;;;20.57;26.06;95279.75;5089114;28;20051;-69
2021/04/27 11:39:53;;;;;;;12.60;7.18;;;;;;;20.51;26.60;95281.34;5089429;28;20121;-69